Terminal Aerodrome Forecast
Issued by NWS

Home | Current Version | Previous Version | Text Only | Print | Product List | Glossary On
Versions: 1 2 3 4 5 6 7 8 9 10 11 12 13
000
FTUS45 KRIW 032334
TAFBPI
TAF
KBPI 032334Z 0400/0424 VRB10G15KT P6SM VCTS SCT030 OVC060CB
     FM040400 30011G18KT P6SM SHRA OVC050
     FM041600 29009KT P6SM SCT050 BKN090
     FM042000 30015G25KT P6SM SCT090=

USA.gov is the U.S. government's official web portal to all federal, state and local government web resources and services.